sensor_id;sensor_type;location;lat;lon;timestamp;temperature;humidity
8002;DHT22;4046;48.774;8.732;2023-07-13T00:00:04;26.90;99.90
8002;DHT22;4046;48.774;8.732;2023-07-13T00:02:34;26.90;99.90
8002;DHT22;4046;48.774;8.732;2023-07-13T00:05:01;26.90;99.90
8002;DHT22;4046;48.774;8.732;2023-07-13T00:07:26;26.90;99.90
8002;DHT22;4046;48.774;8.732;2023-07-13T00:09:52;26.90;99.90
8002;DHT22;4046;48.774;8.732;2023-07-13T00:12:30;26.90;99.90
8002;DHT22;4046;48.774;8.732;2023-07-13T00:14:57;26.90;99.90
8002;DHT22;4046;48.774;8.732;2023-07-13T00:17:24;26.90;99.90
8002;DHT22;4046;48.774;8.732;2023-07-13T00:19:50;26.90;99.90
8002;DHT22;4046;48.774;8.732;2023-07-13T00:22:15;26.90;99.90
8002;DHT22;4046;48.774;8.732;2023-07-13T00:24:44;26.90;99.90
8002;DHT22;4046;48.774;8.732;2023-07-13T00:27:10;26.90;99.90
8002;DHT22;4046;48.774;8.732;2023-07-13T00:29:36;26.90;99.90
8002;DHT22;4046;48.774;8.732;2023-07-13T00:32:06;26.80;99.90
8002;DHT22;4046;48.774;8.732;2023-07-13T00:34:32;26.80;99.90
8002;DHT22;4046;48.774;8.732;2023-07-13T00:36:58;26.80;99.90
8002;DHT22;4046;48.774;8.732;2023-07-13T00:39:24;26.80;99.90
8002;DHT22;4046;48.774;8.732;2023-07-13T00:41:50;26.80;99.90
8002;DHT22;4046;48.774;8.732;2023-07-13T00:44:20;26.80;99.90
8002;DHT22;4046;48.774;8.732;2023-07-13T00:46:49;26.80;99.90
8002;DHT22;4046;48.774;8.732;2023-07-13T00:49:19;26.80;99.90
8002;DHT22;4046;48.774;8.732;2023-07-13T00:51:49;26.80;99.90
8002;DHT22;4046;48.774;8.732;2023-07-13T00:54:24;26.80;99.90
8002;DHT22;4046;48.774;8.732;2023-07-13T00:56:52;26.80;99.90
8002;DHT22;4046;48.774;8.732;2023-07-13T00:59:20;26.90;99.90
8002;DHT22;4046;48.774;8.732;2023-07-13T01:01:47;26.70;99.90
8002;DHT22;4046;48.774;8.732;2023-07-13T01:04:13;26.70;99.90
8002;DHT22;4046;48.774;8.732;2023-07-13T01:06:40;26.70;99.90
8002;DHT22;4046;48.774;8.732;2023-07-13T01:09:08;26.80;99.90
8002;DHT22;4046;48.774;8.732;2023-07-13T01:11:34;26.70;99.90
8002;DHT22;4046;48.774;8.732;2023-07-13T01:14:01;26.70;99.90
8002;DHT22;4046;48.774;8.732;2023-07-13T01:16:32;26.70;99.90
8002;DHT22;4046;48.774;8.732;2023-07-13T01:18:59;26.70;99.90
8002;DHT22;4046;48.774;8.732;2023-07-13T01:21:28;26.70;99.90
8002;DHT22;4046;48.774;8.732;2023-07-13T01:23:54;26.70;99.90
8002;DHT22;4046;48.774;8.732;2023-07-13T01:26:21;26.70;99.90
8002;DHT22;4046;48.774;8.732;2023-07-13T01:28:46;26.70;99.90
8002;DHT22;4046;48.774;8.732;2023-07-13T01:31:12;26.70;99.90
8002;DHT22;4046;48.774;8.732;2023-07-13T01:33:38;26.70;99.90
8002;DHT22;4046;48.774;8.732;2023-07-13T01:36:06;26.70;99.90
8002;DHT22;4046;48.774;8.732;2023-07-13T01:38:33;26.70;99.90
8002;DHT22;4046;48.774;8.732;2023-07-13T01:40:59;26.90;99.90
8002;DHT22;4046;48.774;8.732;2023-07-13T01:43:24;26.60;99.90
8002;DHT22;4046;48.774;8.732;2023-07-13T01:45:50;26.60;99.90
8002;DHT22;4046;48.774;8.732;2023-07-13T01:48:16;26.60;99.90
8002;DHT22;4046;48.774;8.732;2023-07-13T01:50:42;26.60;99.90
8002;DHT22;4046;48.774;8.732;2023-07-13T01:53:08;26.60;99.90
8002;DHT22;4046;48.774;8.732;2023-07-13T01:55:35;26.60;99.90
8002;DHT22;4046;48.774;8.732;2023-07-13T01:58:01;26.60;99.90
8002;DHT22;4046;48.774;8.732;2023-07-13T02:00:27;26.60;99.90
8002;DHT22;4046;48.774;8.732;2023-07-13T02:02:53;26.60;99.90
8002;DHT22;4046;48.774;8.732;2023-07-13T02:05:19;26.60;99.90
8002;DHT22;4046;48.774;8.732;2023-07-13T02:07:45;26.60;99.90
8002;DHT22;4046;48.774;8.732;2023-07-13T02:10:11;26.60;99.90
8002;DHT22;4046;48.774;8.732;2023-07-13T02:12:38;26.60;99.90
8002;DHT22;4046;48.774;8.732;2023-07-13T02:15:04;26.60;99.90
8002;DHT22;4046;48.774;8.732;2023-07-13T02:17:30;26.50;99.90
8002;DHT22;4046;48.774;8.732;2023-07-13T02:19:58;26.50;99.90
8002;DHT22;4046;48.774;8.732;2023-07-13T02:22:23;26.50;99.90
8002;DHT22;4046;48.774;8.732;2023-07-13T02:24:49;26.50;99.90
8002;DHT22;4046;48.774;8.732;2023-07-13T02:27:15;26.50;99.90
8002;DHT22;4046;48.774;8.732;2023-07-13T02:29:41;26.50;99.90
8002;DHT22;4046;48.774;8.732;2023-07-13T02:32:07;26.50;99.90
8002;DHT22;4046;48.774;8.732;2023-07-13T02:34:34;26.50;99.90
8002;DHT22;4046;48.774;8.732;2023-07-13T02:36:59;26.50;99.90
8002;DHT22;4046;48.774;8.732;2023-07-13T02:39:25;26.50;99.90
8002;DHT22;4046;48.774;8.732;2023-07-13T02:41:51;26.50;99.90
8002;DHT22;4046;48.774;8.732;2023-07-13T02:44:17;26.50;99.90
8002;DHT22;4046;48.774;8.732;2023-07-13T02:46:42;26.40;99.90
8002;DHT22;4046;48.774;8.732;2023-07-13T02:49:08;26.40;99.90
8002;DHT22;4046;48.774;8.732;2023-07-13T02:51:34;26.50;99.90
8002;DHT22;4046;48.774;8.732;2023-07-13T02:54:01;26.40;99.90
8002;DHT22;4046;48.774;8.732;2023-07-13T02:56:29;26.40;99.90
8002;DHT22;4046;48.774;8.732;2023-07-13T02:58:56;26.40;99.90
8002;DHT22;4046;48.774;8.732;2023-07-13T03:01:22;26.40;99.90
8002;DHT22;4046;48.774;8.732;2023-07-13T03:03:49;26.40;99.90
8002;DHT22;4046;48.774;8.732;2023-07-13T03:06:15;26.40;99.90
8002;DHT22;4046;48.774;8.732;2023-07-13T03:08:42;26.40;99.90
8002;DHT22;4046;48.774;8.732;2023-07-13T03:11:10;26.40;99.90
8002;DHT22;4046;48.774;8.732;2023-07-13T03:13:37;26.30;99.90
8002;DHT22;4046;48.774;8.732;2023-07-13T03:16:03;26.40;99.90
8002;DHT22;4046;48.774;8.732;2023-07-13T03:18:29;26.30;99.90
8002;DHT22;4046;48.774;8.732;2023-07-13T03:20:55;26.30;99.90
8002;DHT22;4046;48.774;8.732;2023-07-13T03:23:22;26.30;99.90
8002;DHT22;4046;48.774;8.732;2023-07-13T03:25:48;26.30;99.90
8002;DHT22;4046;48.774;8.732;2023-07-13T03:28:14;26.30;99.90
8002;DHT22;4046;48.774;8.732;2023-07-13T03:30:40;26.30;99.90
8002;DHT22;4046;48.774;8.732;2023-07-13T03:33:06;26.30;99.90
8002;DHT22;4046;48.774;8.732;2023-07-13T03:35:31;26.30;99.90
8002;DHT22;4046;48.774;8.732;2023-07-13T03:37:59;26.30;99.90
8002;DHT22;4046;48.774;8.732;2023-07-13T03:40:26;26.40;99.90
8002;DHT22;4046;48.774;8.732;2023-07-13T03:42:52;26.50;99.90
8002;DHT22;4046;48.774;8.732;2023-07-13T03:45:18;26.30;99.90
8002;DHT22;4046;48.774;8.732;2023-07-13T03:47:44;26.20;99.90
8002;DHT22;4046;48.774;8.732;2023-07-13T03:50:11;26.20;99.90
8002;DHT22;4046;48.774;8.732;2023-07-13T03:52:37;26.20;99.90
8002;DHT22;4046;48.774;8.732;2023-07-13T03:55:02;26.20;99.90
8002;DHT22;4046;48.774;8.732;2023-07-13T03:57:28;26.20;99.90
8002;DHT22;4046;48.774;8.732;2023-07-13T03:59:54;26.20;99.90
8002;DHT22;4046;48.774;8.732;2023-07-13T04:02:20;26.20;99.90
8002;DHT22;4046;48.774;8.732;2023-07-13T04:04:46;26.20;99.90
8002;DHT22;4046;48.774;8.732;2023-07-13T04:07:12;26.20;99.90
8002;DHT22;4046;48.774;8.732;2023-07-13T04:09:37;26.20;99.90
8002;DHT22;4046;48.774;8.732;2023-07-13T04:12:03;26.20;99.90
8002;DHT22;4046;48.774;8.732;2023-07-13T04:14:29;26.10;99.90
8002;DHT22;4046;48.774;8.732;2023-07-13T04:16:55;26.20;99.90
8002;DHT22;4046;48.774;8.732;2023-07-13T04:19:21;26.20;99.90
8002;DHT22;4046;48.774;8.732;2023-07-13T04:21:47;26.10;99.90
8002;DHT22;4046;48.774;8.732;2023-07-13T04:24:13;26.10;99.90
8002;DHT22;4046;48.774;8.732;2023-07-13T04:26:39;26.20;99.90
8002;DHT22;4046;48.774;8.732;2023-07-13T04:29:06;26.10;99.90
8002;DHT22;4046;48.774;8.732;2023-07-13T04:31:32;26.20;99.90
8002;DHT22;4046;48.774;8.732;2023-07-13T04:33:59;26.10;99.90
8002;DHT22;4046;48.774;8.732;2023-07-13T04:36:25;26.10;99.90
8002;DHT22;4046;48.774;8.732;2023-07-13T04:38:54;26.10;99.90
8002;DHT22;4046;48.774;8.732;2023-07-13T04:41:20;26.10;99.90
8002;DHT22;4046;48.774;8.732;2023-07-13T04:43:47;26.10;99.90
8002;DHT22;4046;48.774;8.732;2023-07-13T04:46:18;26.10;99.90
8002;DHT22;4046;48.774;8.732;2023-07-13T04:48:44;26.00;99.90
8002;DHT22;4046;48.774;8.732;2023-07-13T04:51:10;26.10;99.90
8002;DHT22;4046;48.774;8.732;2023-07-13T04:53:36;26.10;99.90
8002;DHT22;4046;48.774;8.732;2023-07-13T04:56:03;26.00;99.90
8002;DHT22;4046;48.774;8.732;2023-07-13T04:58:29;26.10;99.90
8002;DHT22;4046;48.774;8.732;2023-07-13T05:01:00;26.10;99.90
8002;DHT22;4046;48.774;8.732;2023-07-13T05:03:26;26.00;99.90
8002;DHT22;4046;48.774;8.732;2023-07-13T05:05:57;26.00;99.90
8002;DHT22;4046;48.774;8.732;2023-07-13T05:08:23;26.00;99.90
8002;DHT22;4046;48.774;8.732;2023-07-13T05:10:49;26.10;99.90
8002;DHT22;4046;48.774;8.732;2023-07-13T05:13:15;26.00;99.90
8002;DHT22;4046;48.774;8.732;2023-07-13T05:15:40;26.00;99.90
8002;DHT22;4046;48.774;8.732;2023-07-13T05:18:06;26.00;99.90
8002;DHT22;4046;48.774;8.732;2023-07-13T05:20:32;26.00;99.90
8002;DHT22;4046;48.774;8.732;2023-07-13T05:22:57;26.00;99.90
8002;DHT22;4046;48.774;8.732;2023-07-13T05:25:23;26.00;99.90
8002;DHT22;4046;48.774;8.732;2023-07-13T05:27:49;26.00;99.90
8002;DHT22;4046;48.774;8.732;2023-07-13T05:30:14;26.00;99.90
8002;DHT22;4046;48.774;8.732;2023-07-13T05:32:40;26.00;99.90
8002;DHT22;4046;48.774;8.732;2023-07-13T05:35:07;26.00;99.90
8002;DHT22;4046;48.774;8.732;2023-07-13T05:37:33;26.00;99.90
8002;DHT22;4046;48.774;8.732;2023-07-13T05:39:59;26.00;99.90
8002;DHT22;4046;48.774;8.732;2023-07-13T05:42:25;26.00;99.90
8002;DHT22;4046;48.774;8.732;2023-07-13T05:44:50;26.00;99.90
8002;DHT22;4046;48.774;8.732;2023-07-13T05:47:16;26.00;99.90
8002;DHT22;4046;48.774;8.732;2023-07-13T05:49:42;26.00;99.90
8002;DHT22;4046;48.774;8.732;2023-07-13T05:52:08;26.00;99.90
8002;DHT22;4046;48.774;8.732;2023-07-13T05:54:33;26.00;99.90
8002;DHT22;4046;48.774;8.732;2023-07-13T05:56:59;26.00;99.90
8002;DHT22;4046;48.774;8.732;2023-07-13T05:59:25;26.00;99.90
8002;DHT22;4046;48.774;8.732;2023-07-13T06:01:51;26.00;99.90
8002;DHT22;4046;48.774;8.732;2023-07-13T06:04:18;26.00;99.90
8002;DHT22;4046;48.774;8.732;2023-07-13T06:06:44;26.00;99.90
8002;DHT22;4046;48.774;8.732;2023-07-13T06:09:10;26.00;99.90
8002;DHT22;4046;48.774;8.732;2023-07-13T06:11:36;26.00;99.90
8002;DHT22;4046;48.774;8.732;2023-07-13T06:14:02;26.00;99.90
8002;DHT22;4046;48.774;8.732;2023-07-13T06:16:29;26.00;99.90
8002;DHT22;4046;48.774;8.732;2023-07-13T06:18:55;26.00;99.90
8002;DHT22;4046;48.774;8.732;2023-07-13T06:21:22;26.00;99.90
8002;DHT22;4046;48.774;8.732;2023-07-13T06:23:50;26.10;99.90
8002;DHT22;4046;48.774;8.732;2023-07-13T06:26:18;26.00;99.90
8002;DHT22;4046;48.774;8.732;2023-07-13T06:28:44;26.00;99.90
8002;DHT22;4046;48.774;8.732;2023-07-13T06:31:11;26.00;99.80
8002;DHT22;4046;48.774;8.732;2023-07-13T06:33:38;26.00;99.80
8002;DHT22;4046;48.774;8.732;2023-07-13T06:36:05;26.00;99.90
8002;DHT22;4046;48.774;8.732;2023-07-13T06:38:31;26.00;99.90
8002;DHT22;4046;48.774;8.732;2023-07-13T06:40:57;26.00;99.80
8002;DHT22;4046;48.774;8.732;2023-07-13T06:43:23;26.00;99.90
8002;DHT22;4046;48.774;8.732;2023-07-13T06:45:50;26.00;99.80
8002;DHT22;4046;48.774;8.732;2023-07-13T06:48:18;26.00;99.90
8002;DHT22;4046;48.774;8.732;2023-07-13T06:50:44;26.00;99.90
8002;DHT22;4046;48.774;8.732;2023-07-13T06:53:11;26.00;99.90
8002;DHT22;4046;48.774;8.732;2023-07-13T06:55:38;26.00;99.90
8002;DHT22;4046;48.774;8.732;2023-07-13T06:58:04;26.00;99.90
8002;DHT22;4046;48.774;8.732;2023-07-13T07:00:31;26.10;99.90
8002;DHT22;4046;48.774;8.732;2023-07-13T07:02:59;26.00;99.90
8002;DHT22;4046;48.774;8.732;2023-07-13T07:05:25;26.00;99.90
8002;DHT22;4046;48.774;8.732;2023-07-13T07:07:52;26.10;99.90
8002;DHT22;4046;48.774;8.732;2023-07-13T07:10:18;26.00;99.90
8002;DHT22;4046;48.774;8.732;2023-07-13T07:12:44;26.00;99.90
8002;DHT22;4046;48.774;8.732;2023-07-13T07:15:11;26.00;99.90
8002;DHT22;4046;48.774;8.732;2023-07-13T07:17:37;26.00;99.90
8002;DHT22;4046;48.774;8.732;2023-07-13T07:20:03;26.00;99.90
8002;DHT22;4046;48.774;8.732;2023-07-13T07:22:29;26.00;99.90
8002;DHT22;4046;48.774;8.732;2023-07-13T07:24:56;26.00;99.90
8002;DHT22;4046;48.774;8.732;2023-07-13T07:27:23;26.00;99.90
8002;DHT22;4046;48.774;8.732;2023-07-13T07:29:48;26.00;99.90
8002;DHT22;4046;48.774;8.732;2023-07-13T07:32:14;26.00;99.90
8002;DHT22;4046;48.774;8.732;2023-07-13T07:34:40;26.00;99.90
8002;DHT22;4046;48.774;8.732;2023-07-13T07:37:06;26.00;99.90
8002;DHT22;4046;48.774;8.732;2023-07-13T07:39:32;26.00;99.90
8002;DHT22;4046;48.774;8.732;2023-07-13T07:41:58;26.00;99.90
8002;DHT22;4046;48.774;8.732;2023-07-13T07:44:24;26.00;99.90
8002;DHT22;4046;48.774;8.732;2023-07-13T07:46:50;26.00;99.90
8002;DHT22;4046;48.774;8.732;2023-07-13T07:49:16;26.00;99.90
8002;DHT22;4046;48.774;8.732;2023-07-13T07:51:42;26.00;99.90
8002;DHT22;4046;48.774;8.732;2023-07-13T07:54:08;26.00;99.90
8002;DHT22;4046;48.774;8.732;2023-07-13T07:56:33;26.00;99.90
8002;DHT22;4046;48.774;8.732;2023-07-13T07:58:59;26.00;99.90
8002;DHT22;4046;48.774;8.732;2023-07-13T08:01:25;26.00;99.90
8002;DHT22;4046;48.774;8.732;2023-07-13T08:03:51;26.00;99.90
8002;DHT22;4046;48.774;8.732;2023-07-13T08:06:17;26.00;99.90
8002;DHT22;4046;48.774;8.732;2023-07-13T08:08:45;26.00;99.90
8002;DHT22;4046;48.774;8.732;2023-07-13T08:11:11;26.00;99.90
8002;DHT22;4046;48.774;8.732;2023-07-13T08:13:37;26.00;99.90
8002;DHT22;4046;48.774;8.732;2023-07-13T08:16:06;26.00;99.90
8002;DHT22;4046;48.774;8.732;2023-07-13T08:18:33;26.00;99.90
8002;DHT22;4046;48.774;8.732;2023-07-13T08:21:04;26.20;99.90
8002;DHT22;4046;48.774;8.732;2023-07-13T08:23:29;26.00;99.90
8002;DHT22;4046;48.774;8.732;2023-07-13T08:25:55;26.00;99.90
8002;DHT22;4046;48.774;8.732;2023-07-13T08:28:22;26.10;99.90
8002;DHT22;4046;48.774;8.732;2023-07-13T08:30:48;26.10;99.90
8002;DHT22;4046;48.774;8.732;2023-07-13T08:33:15;26.20;99.90
8002;DHT22;4046;48.774;8.732;2023-07-13T08:35:41;26.20;99.90
8002;DHT22;4046;48.774;8.732;2023-07-13T08:38:07;26.20;99.90
8002;DHT22;4046;48.774;8.732;2023-07-13T08:40:33;26.20;99.90
8002;DHT22;4046;48.774;8.732;2023-07-13T08:43:00;26.20;99.90
8002;DHT22;4046;48.774;8.732;2023-07-13T08:45:32;26.30;99.90
8002;DHT22;4046;48.774;8.732;2023-07-13T08:48:09;26.30;99.90
8002;DHT22;4046;48.774;8.732;2023-07-13T08:50:49;26.40;99.90
8002;DHT22;4046;48.774;8.732;2023-07-13T08:53:17;26.40;99.90
8002;DHT22;4046;48.774;8.732;2023-07-13T08:55:44;26.40;99.80
8002;DHT22;4046;48.774;8.732;2023-07-13T08:58:16;26.50;99.90
8002;DHT22;4046;48.774;8.732;2023-07-13T09:00:57;26.50;99.80
8002;DHT22;4046;48.774;8.732;2023-07-13T09:03:31;26.50;99.90
8002;DHT22;4046;48.774;8.732;2023-07-13T09:06:03;26.50;99.80
8002;DHT22;4046;48.774;8.732;2023-07-13T09:13:51;26.60;99.70
8002;DHT22;4046;48.774;8.732;2023-07-13T09:16:19;26.60;99.70
8002;DHT22;4046;48.774;8.732;2023-07-13T09:18:56;26.60;99.60
8002;DHT22;4046;48.774;8.732;2023-07-13T09:21:35;26.60;99.50
8002;DHT22;4046;48.774;8.732;2023-07-13T09:24:27;26.60;99.60
8002;DHT22;4046;48.774;8.732;2023-07-13T09:26:55;26.60;99.60
8002;DHT22;4046;48.774;8.732;2023-07-13T09:29:34;26.60;99.50
8002;DHT22;4046;48.774;8.732;2023-07-13T09:32:06;26.70;99.50
8002;DHT22;4046;48.774;8.732;2023-07-13T09:34:33;26.70;99.50
8002;DHT22;4046;48.774;8.732;2023-07-13T09:36:59;26.70;99.60
8002;DHT22;4046;48.774;8.732;2023-07-13T09:39:28;26.80;99.70
8002;DHT22;4046;48.774;8.732;2023-07-13T09:42:22;26.90;99.60
8002;DHT22;4046;48.774;8.732;2023-07-13T09:44:56;26.80;99.50
8002;DHT22;4046;48.774;8.732;2023-07-13T09:47:28;26.90;99.50
8002;DHT22;4046;48.774;8.732;2023-07-13T09:49:58;26.90;99.40
8002;DHT22;4046;48.774;8.732;2023-07-13T09:52:25;26.90;99.50
8002;DHT22;4046;48.774;8.732;2023-07-13T09:54:52;26.90;99.40
8002;DHT22;4046;48.774;8.732;2023-07-13T09:57:26;26.90;99.40
8002;DHT22;4046;48.774;8.732;2023-07-13T09:59:53;26.90;99.40
8002;DHT22;4046;48.774;8.732;2023-07-13T10:05:11;26.90;99.40
8002;DHT22;4046;48.774;8.732;2023-07-13T10:07:43;27.00;99.40
8002;DHT22;4046;48.774;8.732;2023-07-13T10:10:21;27.00;99.30
8002;DHT22;4046;48.774;8.732;2023-07-13T10:12:49;26.90;99.30
8002;DHT22;4046;48.774;8.732;2023-07-13T10:15:19;27.00;99.30
8002;DHT22;4046;48.774;8.732;2023-07-13T10:17:46;27.00;99.30
8002;DHT22;4046;48.774;8.732;2023-07-13T10:20:12;27.00;99.20
8002;DHT22;4046;48.774;8.732;2023-07-13T10:22:51;27.00;99.20
8002;DHT22;4046;48.774;8.732;2023-07-13T10:25:21;27.00;99.20
8002;DHT22;4046;48.774;8.732;2023-07-13T10:27:51;27.00;99.20
8002;DHT22;4046;48.774;8.732;2023-07-13T10:30:22;26.90;99.30
8002;DHT22;4046;48.774;8.732;2023-07-13T10:32:51;27.00;99.20
8002;DHT22;4046;48.774;8.732;2023-07-13T10:35:20;27.00;99.00
8002;DHT22;4046;48.774;8.732;2023-07-13T10:38:00;27.00;99.10
8002;DHT22;4046;48.774;8.732;2023-07-13T10:40:38;26.90;99.20
8002;DHT22;4046;48.774;8.732;2023-07-13T10:43:13;26.90;99.20
8002;DHT22;4046;48.774;8.732;2023-07-13T10:45:40;26.90;99.20
8002;DHT22;4046;48.774;8.732;2023-07-13T10:48:11;26.90;99.20
8002;DHT22;4046;48.774;8.732;2023-07-13T10:50:40;27.00;99.30
8002;DHT22;4046;48.774;8.732;2023-07-13T10:53:37;27.00;99.30
8002;DHT22;4046;48.774;8.732;2023-07-13T10:58:42;26.90;99.40
8002;DHT22;4046;48.774;8.732;2023-07-13T11:01:14;26.90;99.40
8002;DHT22;4046;48.774;8.732;2023-07-13T11:06:14;27.00;99.50
8002;DHT22;4046;48.774;8.732;2023-07-13T11:11:36;27.00;99.50
8002;DHT22;4046;48.774;8.732;2023-07-13T11:14:28;27.00;99.50
8002;DHT22;4046;48.774;8.732;2023-07-13T11:16:54;27.00;99.40
8002;DHT22;4046;48.774;8.732;2023-07-13T11:22:02;27.10;99.50
8002;DHT22;4046;48.774;8.732;2023-07-13T11:24:30;27.10;99.50
8002;DHT22;4046;48.774;8.732;2023-07-13T11:27:41;27.10;99.50
8002;DHT22;4046;48.774;8.732;2023-07-13T11:30:34;27.10;99.40
8002;DHT22;4046;48.774;8.732;2023-07-13T11:33:19;27.10;99.50
8002;DHT22;4046;48.774;8.732;2023-07-13T11:36:05;27.10;99.50
8002;DHT22;4046;48.774;8.732;2023-07-13T11:38:39;27.20;99.50
8002;DHT22;4046;48.774;8.732;2023-07-13T11:41:15;27.10;99.40
8002;DHT22;4046;48.774;8.732;2023-07-13T11:43:42;27.20;99.40
8002;DHT22;4046;48.774;8.732;2023-07-13T11:46:26;27.20;99.40
8002;DHT22;4046;48.774;8.732;2023-07-13T11:48:53;27.20;99.40
8002;DHT22;4046;48.774;8.732;2023-07-13T11:51:28;27.20;99.30
8002;DHT22;4046;48.774;8.732;2023-07-13T11:53:56;27.20;99.30
8002;DHT22;4046;48.774;8.732;2023-07-13T11:56:25;27.20;99.30
8002;DHT22;4046;48.774;8.732;2023-07-13T11:58:53;27.20;99.30
8002;DHT22;4046;48.774;8.732;2023-07-13T12:01:29;27.10;99.30
8002;DHT22;4046;48.774;8.732;2023-07-13T12:04:02;27.20;99.40
8002;DHT22;4046;48.774;8.732;2023-07-13T12:06:31;27.40;99.40
8002;DHT22;4046;48.774;8.732;2023-07-13T12:08:59;27.10;99.40
8002;DHT22;4046;48.774;8.732;2023-07-13T12:11:25;27.10;99.40
8002;DHT22;4046;48.774;8.732;2023-07-13T12:13:51;27.10;99.40
8002;DHT22;4046;48.774;8.732;2023-07-13T12:16:21;27.10;99.40
8002;DHT22;4046;48.774;8.732;2023-07-13T12:18:48;27.10;99.40
8002;DHT22;4046;48.774;8.732;2023-07-13T12:21:17;27.10;99.40
8002;DHT22;4046;48.774;8.732;2023-07-13T12:23:47;27.10;99.40
8002;DHT22;4046;48.774;8.732;2023-07-13T12:26:14;27.00;99.40
8002;DHT22;4046;48.774;8.732;2023-07-13T12:28:49;27.00;99.40
8002;DHT22;4046;48.774;8.732;2023-07-13T12:31:30;27.10;99.40
8002;DHT22;4046;48.774;8.732;2023-07-13T12:34:07;26.80;99.30
8002;DHT22;4046;48.774;8.732;2023-07-13T12:36:36;27.00;99.30
8002;DHT22;4046;48.774;8.732;2023-07-13T12:39:16;27.00;99.30
8002;DHT22;4046;48.774;8.732;2023-07-13T12:41:42;27.00;99.40
8002;DHT22;4046;48.774;8.732;2023-07-13T12:44:39;27.00;99.30
8002;DHT22;4046;48.774;8.732;2023-07-13T12:47:09;27.00;99.30
8002;DHT22;4046;48.774;8.732;2023-07-13T12:49:48;27.00;99.40
8002;DHT22;4046;48.774;8.732;2023-07-13T12:52:17;27.00;99.30
8002;DHT22;4046;48.774;8.732;2023-07-13T12:54:54;27.20;99.40
8002;DHT22;4046;48.774;8.732;2023-07-13T12:57:22;27.00;99.30
8002;DHT22;4046;48.774;8.732;2023-07-13T12:59:52;27.00;99.60
8002;DHT22;4046;48.774;8.732;2023-07-13T13:02:32;27.00;99.20
8002;DHT22;4046;48.774;8.732;2023-07-13T13:05:01;27.00;99.20
8002;DHT22;4046;48.774;8.732;2023-07-13T13:07:28;27.00;99.30
8002;DHT22;4046;48.774;8.732;2023-07-13T13:09:55;27.00;99.20
8002;DHT22;4046;48.774;8.732;2023-07-13T13:12:22;27.00;99.20
8002;DHT22;4046;48.774;8.732;2023-07-13T13:14:49;27.00;99.20
8002;DHT22;4046;48.774;8.732;2023-07-13T13:17:24;27.00;99.30
8002;DHT22;4046;48.774;8.732;2023-07-13T13:19:53;27.00;99.30
8002;DHT22;4046;48.774;8.732;2023-07-13T13:22:20;27.00;99.30
8002;DHT22;4046;48.774;8.732;2023-07-13T13:24:46;27.00;99.30
8002;DHT22;4046;48.774;8.732;2023-07-13T13:27:21;27.00;99.30
8002;DHT22;4046;48.774;8.732;2023-07-13T13:29:50;27.00;99.30
8002;DHT22;4046;48.774;8.732;2023-07-13T13:32:17;27.00;99.30
8002;DHT22;4046;48.774;8.732;2023-07-13T13:34:45;27.10;99.30
8002;DHT22;4046;48.774;8.732;2023-07-13T13:37:20;27.00;99.30
8002;DHT22;4046;48.774;8.732;2023-07-13T13:39:46;27.10;99.20
8002;DHT22;4046;48.774;8.732;2023-07-13T13:42:13;27.10;99.30
8002;DHT22;4046;48.774;8.732;2023-07-13T13:44:39;27.10;99.30
8002;DHT22;4046;48.774;8.732;2023-07-13T13:47:29;27.10;99.30
8002;DHT22;4046;48.774;8.732;2023-07-13T13:49:56;27.10;99.30
8002;DHT22;4046;48.774;8.732;2023-07-13T13:52:22;27.00;99.30
8002;DHT22;4046;48.774;8.732;2023-07-13T13:54:47;27.00;99.20
8002;DHT22;4046;48.774;8.732;2023-07-13T13:57:14;27.00;99.30
8002;DHT22;4046;48.774;8.732;2023-07-13T13:59:40;27.00;99.20
8002;DHT22;4046;48.774;8.732;2023-07-13T14:02:32;27.00;99.20
8002;DHT22;4046;48.774;8.732;2023-07-13T14:05:02;27.00;99.20
8002;DHT22;4046;48.774;8.732;2023-07-13T14:07:29;27.00;99.30
8002;DHT22;4046;48.774;8.732;2023-07-13T14:09:58;27.00;99.20
8002;DHT22;4046;48.774;8.732;2023-07-13T14:12:27;27.00;99.10
8002;DHT22;4046;48.774;8.732;2023-07-13T14:14:55;27.10;99.10
8002;DHT22;4046;48.774;8.732;2023-07-13T14:17:25;27.00;99.10
8002;DHT22;4046;48.774;8.732;2023-07-13T14:19:53;27.00;99.10
8002;DHT22;4046;48.774;8.732;2023-07-13T14:22:26;27.10;99.20
8002;DHT22;4046;48.774;8.732;2023-07-13T14:24:53;27.10;99.10
8002;DHT22;4046;48.774;8.732;2023-07-13T14:27:20;27.10;99.20
8002;DHT22;4046;48.774;8.732;2023-07-13T14:29:46;27.10;99.20
8002;DHT22;4046;48.774;8.732;2023-07-13T14:32:12;27.10;98.60
8002;DHT22;4046;48.774;8.732;2023-07-13T14:34:39;27.00;98.40
8002;DHT22;4046;48.774;8.732;2023-07-13T14:37:05;27.10;98.50
8002;DHT22;4046;48.774;8.732;2023-07-13T14:39:35;27.10;98.60
8002;DHT22;4046;48.774;8.732;2023-07-13T14:42:01;27.20;98.60
8002;DHT22;4046;48.774;8.732;2023-07-13T14:44:30;27.10;98.70
8002;DHT22;4046;48.774;8.732;2023-07-13T14:47:02;27.00;98.60
8002;DHT22;4046;48.774;8.732;2023-07-13T14:49:43;27.10;98.70
8002;DHT22;4046;48.774;8.732;2023-07-13T14:52:17;27.10;98.80
8002;DHT22;4046;48.774;8.732;2023-07-13T14:54:44;27.10;98.80
8002;DHT22;4046;48.774;8.732;2023-07-13T14:57:16;27.10;98.80
8002;DHT22;4046;48.774;8.732;2023-07-13T14:59:42;27.10;98.80
8002;DHT22;4046;48.774;8.732;2023-07-13T15:02:28;27.10;98.80
8002;DHT22;4046;48.774;8.732;2023-07-13T15:04:55;27.10;98.80
8002;DHT22;4046;48.774;8.732;2023-07-13T15:07:21;27.10;98.90
8002;DHT22;4046;48.774;8.732;2023-07-13T15:09:48;27.10;99.20
8002;DHT22;4046;48.774;8.732;2023-07-13T15:12:14;27.10;98.90
8002;DHT22;4046;48.774;8.732;2023-07-13T15:14:40;27.10;98.80
8002;DHT22;4046;48.774;8.732;2023-07-13T15:17:42;27.10;99.20
8002;DHT22;4046;48.774;8.732;2023-07-13T15:20:25;27.10;98.70
8002;DHT22;4046;48.774;8.732;2023-07-13T15:22:51;27.10;98.70
8002;DHT22;4046;48.774;8.732;2023-07-13T15:25:25;27.10;98.70
8002;DHT22;4046;48.774;8.732;2023-07-13T15:27:53;27.10;98.70
8002;DHT22;4046;48.774;8.732;2023-07-13T15:30:19;27.00;98.60
8002;DHT22;4046;48.774;8.732;2023-07-13T15:32:46;27.00;98.60
8002;DHT22;4046;48.774;8.732;2023-07-13T15:35:17;27.10;98.70
8002;DHT22;4046;48.774;8.732;2023-07-13T15:37:44;27.00;98.70
8002;DHT22;4046;48.774;8.732;2023-07-13T15:40:11;27.00;98.80
8002;DHT22;4046;48.774;8.732;2023-07-13T15:42:38;27.10;98.80
8002;DHT22;4046;48.774;8.732;2023-07-13T15:45:15;27.00;98.70
8002;DHT22;4046;48.774;8.732;2023-07-13T15:47:41;27.00;98.60
8002;DHT22;4046;48.774;8.732;2023-07-13T15:50:22;27.00;98.60
8002;DHT22;4046;48.774;8.732;2023-07-13T15:52:51;27.00;98.60
8002;DHT22;4046;48.774;8.732;2023-07-13T15:55:18;27.00;98.60
8002;DHT22;4046;48.774;8.732;2023-07-13T15:57:48;26.90;98.60
8002;DHT22;4046;48.774;8.732;2023-07-13T16:00:19;26.90;98.60
8002;DHT22;4046;48.774;8.732;2023-07-13T16:02:47;26.90;98.70
8002;DHT22;4046;48.774;8.732;2023-07-13T16:05:13;26.90;98.80
8002;DHT22;4046;48.774;8.732;2023-07-13T16:07:48;26.90;98.70
8002;DHT22;4046;48.774;8.732;2023-07-13T16:10:41;26.90;98.70
8002;DHT22;4046;48.774;8.732;2023-07-13T16:13:18;26.90;98.70
8002;DHT22;4046;48.774;8.732;2023-07-13T16:15:46;26.80;98.60
8002;DHT22;4046;48.774;8.732;2023-07-13T16:18:13;26.80;98.70
8002;DHT22;4046;48.774;8.732;2023-07-13T16:20:43;26.80;98.70
8002;DHT22;4046;48.774;8.732;2023-07-13T16:23:12;26.80;98.70
8002;DHT22;4046;48.774;8.732;2023-07-13T16:25:39;26.80;98.70
8002;DHT22;4046;48.774;8.732;2023-07-13T16:28:05;26.80;98.80
8002;DHT22;4046;48.774;8.732;2023-07-13T16:30:31;26.70;98.90